createdAt,value
2018-04-07T00:00:05.509Z,3.70
2018-04-07T00:01:05.892Z,3.70
2018-04-07T00:02:05.503Z,3.70
2018-04-07T00:03:04.804Z,3.70
2018-04-07T00:04:05.274Z,3.70
2018-04-07T00:05:04.790Z,3.70
2018-04-07T00:06:05.288Z,3.70
2018-04-07T00:07:08.153Z,3.70
2018-04-07T00:08:05.276Z,3.80
2018-04-07T00:09:05.958Z,3.70
2018-04-07T00:10:05.648Z,3.70
2018-04-07T00:11:05.201Z,3.70
2018-04-07T00:12:06.488Z,3.70
2018-04-07T00:13:05.218Z,3.70
2018-04-07T00:14:05.543Z,3.70
2018-04-07T00:15:05.160Z,3.70
2018-04-07T00:16:05.617Z,3.70
2018-04-07T00:17:06.491Z,3.70
2018-04-07T00:18:05.634Z,3.70
2018-04-07T00:19:04.792Z,3.70
2018-04-07T00:20:05.178Z,3.70
2018-04-07T00:21:05.544Z,3.70
2018-04-07T00:22:05.321Z,3.80
2018-04-07T00:23:10.551Z,3.70
2018-04-07T00:24:05.637Z,3.70
2018-04-07T00:25:05.002Z,3.70
2018-04-07T00:26:05.584Z,3.70
2018-04-07T00:27:04.964Z,3.70
2018-04-07T00:28:05.253Z,3.70
2018-04-07T00:29:05.613Z,3.70
2018-04-07T00:30:05.665Z,3.70
2018-04-07T00:31:05.149Z,3.70
2018-04-07T00:32:05.775Z,3.70
2018-04-07T00:33:05.540Z,3.60
2018-04-07T00:34:05.523Z,3.60
2018-04-07T00:35:05.122Z,3.60
2018-04-07T00:36:05.900Z,3.60
2018-04-07T00:37:05.118Z,3.60
2018-04-07T00:38:05.541Z,3.60
2018-04-07T00:39:05.931Z,3.60
2018-04-07T00:40:05.209Z,3.60
2018-04-07T00:41:05.929Z,3.60
2018-04-07T00:42:05.634Z,3.60
2018-04-07T00:43:05.589Z,3.60
2018-04-07T00:44:05.141Z,3.60
2018-04-07T00:45:05.635Z,3.50
2018-04-07T00:46:04.903Z,3.50
2018-04-07T00:47:05.416Z,3.50
2018-04-07T00:48:05.201Z,3.50
2018-04-07T00:49:05.375Z,3.50
2018-04-07T00:50:05.736Z,3.40
2018-04-07T00:51:05.230Z,3.40
2018-04-07T00:52:04.813Z,3.40
2018-04-07T00:53:05.336Z,3.40
2018-04-07T00:54:05.171Z,3.40
2018-04-07T00:55:05.958Z,3.30
2018-04-07T00:56:05.582Z,3.30
2018-04-07T00:57:04.800Z,3.30
2018-04-07T00:58:05.175Z,3.30
2018-04-07T00:59:05.552Z,3.20
2018-04-07T01:00:04.983Z,3.20
2018-04-07T01:01:05.589Z,3.20
2018-04-07T01:02:04.960Z,3.20
2018-04-07T01:03:05.955Z,3.20
2018-04-07T01:04:05.622Z,3.20
2018-04-07T01:05:05.192Z,3.10
2018-04-07T01:06:05.992Z,3.10
2018-04-07T01:07:05.629Z,3.10
2018-04-07T01:08:05.758Z,3.10
2018-04-07T01:09:05.032Z,3.00
2018-04-07T01:10:04.922Z,3.00
2018-04-07T01:11:05.298Z,3.00
2018-04-07T01:12:06.030Z,3.00
2018-04-07T01:13:05.610Z,3.00
2018-04-07T01:14:05.359Z,3.00
2018-04-07T01:15:05.279Z,3.00
2018-04-07T01:16:04.957Z,3.00
2018-04-07T01:17:05.669Z,3.00
2018-04-07T01:18:05.647Z,3.00
2018-04-07T01:19:05.275Z,2.90
2018-04-07T01:20:05.601Z,2.90
2018-04-07T01:21:05.402Z,2.90
2018-04-07T01:22:05.230Z,2.90
2018-04-07T01:23:05.219Z,2.90
2018-04-07T01:24:05.585Z,2.90
2018-04-07T01:25:04.958Z,2.90
2018-04-07T01:26:04.854Z,2.90
2018-04-07T01:27:05.279Z,2.90
2018-04-07T01:28:05.979Z,2.90
2018-04-07T01:29:05.560Z,2.90
2018-04-07T01:30:05.191Z,2.90
2018-04-07T01:31:05.406Z,2.80
2018-04-07T01:32:05.267Z,2.80
2018-04-07T01:33:04.980Z,2.80
2018-04-07T01:34:05.664Z,2.90
2018-04-07T01:35:05.301Z,2.80
2018-04-07T01:36:05.569Z,2.80
2018-04-07T01:37:04.929Z,2.80
2018-04-07T01:38:05.664Z,2.80
2018-04-07T01:39:05.232Z,2.80
2018-04-07T01:40:05.694Z,2.80
2018-04-07T01:41:04.880Z,2.80
2018-04-07T01:42:05.310Z,2.80
2018-04-07T01:43:05.583Z,2.70
2018-04-07T01:44:05.200Z,2.70
2018-04-07T01:45:05.702Z,2.70
2018-04-07T01:46:05.620Z,2.70
2018-04-07T01:47:05.320Z,2.70
2018-04-07T01:48:05.209Z,2.60
2018-04-07T01:49:04.923Z,2.60
2018-04-07T01:50:05.603Z,2.60
2018-04-07T01:51:05.600Z,2.60
2018-04-07T01:52:05.290Z,2.50
2018-04-07T01:53:06.002Z,2.50
2018-04-07T01:54:05.374Z,2.50
2018-04-07T01:55:10.741Z,2.50
2018-04-07T01:56:05.239Z,2.40
2018-04-07T01:57:05.389Z,2.40
2018-04-07T01:58:04.908Z,2.40
2018-04-07T01:59:06.017Z,2.40
2018-04-07T02:00:05.673Z,2.40
2018-04-07T02:01:05.571Z,2.40
2018-04-07T02:02:04.913Z,2.30
2018-04-07T02:03:05.653Z,2.30
2018-04-07T02:04:05.635Z,2.30
2018-04-07T02:05:05.271Z,2.30
2018-04-07T02:06:05.658Z,2.30
2018-04-07T02:07:05.260Z,2.30
2018-04-07T02:08:06.012Z,2.30
2018-04-07T02:09:05.620Z,2.20
2018-04-07T02:10:05.337Z,2.20
2018-04-07T02:11:05.740Z,2.20
2018-04-07T02:12:05.626Z,2.20
2018-04-07T02:13:05.202Z,2.20
2018-04-07T02:14:06.132Z,2.20
2018-04-07T02:15:05.619Z,2.10
2018-04-07T02:16:05.713Z,2.20
2018-04-07T02:17:05.289Z,2.20
2018-04-07T02:18:05.670Z,2.20
2018-04-07T02:19:05.200Z,2.20
2018-04-07T02:20:05.042Z,2.10
2018-04-07T02:21:05.269Z,2.10
2018-04-07T02:22:05.722Z,2.10
2018-04-07T02:23:05.774Z,2.10
2018-04-07T02:24:06.476Z,2.10
2018-04-07T02:25:05.689Z,2.10
2018-04-07T02:26:05.354Z,2.10
2018-04-07T02:27:05.070Z,2.00
2018-04-07T02:28:05.671Z,2.00
2018-04-07T02:29:05.321Z,2.00
2018-04-07T02:30:05.718Z,2.00
2018-04-07T02:31:05.658Z,2.00
2018-04-07T02:32:05.250Z,2.00
2018-04-07T02:33:04.881Z,2.00
2018-04-07T02:34:05.623Z,1.90
2018-04-07T02:35:04.942Z,1.90
2018-04-07T02:36:05.273Z,1.90
2018-04-07T02:37:05.670Z,1.90
2018-04-07T02:38:04.890Z,1.90
2018-04-07T02:39:05.663Z,2.00
2018-04-07T02:40:05.730Z,2.00
2018-04-07T02:41:05.004Z,2.00
2018-04-07T02:42:05.054Z,2.00
2018-04-07T02:43:05.648Z,2.00
2018-04-07T02:44:05.343Z,2.00
2018-04-07T02:45:05.099Z,2.00
2018-04-07T02:46:05.359Z,2.00
2018-04-07T02:47:05.822Z,2.00
2018-04-07T02:48:05.389Z,2.00
2018-04-07T02:49:05.023Z,1.90
2018-04-07T02:50:05.639Z,1.90
2018-04-07T02:51:05.350Z,1.90
2018-04-07T02:52:04.965Z,2.00
2018-04-07T02:53:05.773Z,2.00
2018-04-07T02:54:05.286Z,2.00
2018-04-07T02:55:06.094Z,2.00
2018-04-07T02:56:05.704Z,2.00
2018-04-07T02:57:05.296Z,2.00
2018-04-07T02:58:06.031Z,2.00
2018-04-07T02:59:06.071Z,2.00
2018-04-07T03:00:05.271Z,2.00
2018-04-07T03:01:05.673Z,2.10
2018-04-07T03:02:05.738Z,2.10
2018-04-07T03:03:05.427Z,2.10
2018-04-07T03:04:04.968Z,2.10
2018-04-07T03:05:05.497Z,2.20
2018-04-07T03:06:05.330Z,2.20
2018-04-07T03:07:05.839Z,2.20
2018-04-07T03:08:05.309Z,2.30
2018-04-07T03:09:05.640Z,2.30
2018-04-07T03:10:04.988Z,2.30
2018-04-07T03:11:05.282Z,2.30
2018-04-07T03:12:05.763Z,2.40
2018-04-07T03:13:05.374Z,2.40
2018-04-07T03:14:04.975Z,2.40
2018-04-07T03:15:05.452Z,2.50
2018-04-07T03:16:05.299Z,2.50
2018-04-07T03:17:04.974Z,2.50
2018-04-07T03:18:05.807Z,2.50
2018-04-07T03:19:05.717Z,2.60
2018-04-07T03:20:05.294Z,2.60
2018-04-07T03:21:04.993Z,2.60
2018-04-07T03:22:05.412Z,2.60
2018-04-07T03:23:04.918Z,2.60
2018-04-07T03:24:05.334Z,2.60
2018-04-07T03:25:05.712Z,2.60
2018-04-07T03:26:05.424Z,2.70
2018-04-07T03:27:05.026Z,2.70
2018-04-07T03:28:05.743Z,2.70
2018-04-07T03:29:05.695Z,2.70
2018-04-07T03:30:05.734Z,2.70
2018-04-07T03:31:05.672Z,2.70
2018-04-07T03:32:05.684Z,2.70
2018-04-07T03:33:05.299Z,2.80
2018-04-07T03:34:05.753Z,2.80
2018-04-07T03:35:05.009Z,2.80
2018-04-07T03:36:04.921Z,2.80
2018-04-07T03:37:05.340Z,2.80
2018-04-07T03:38:04.951Z,2.80
2018-04-07T03:39:05.805Z,2.80
2018-04-07T03:40:05.798Z,2.80
2018-04-07T03:41:06.273Z,2.80
2018-04-07T03:42:05.741Z,2.80
2018-04-07T03:43:05.289Z,2.90
2018-04-07T03:44:05.539Z,2.90
2018-04-07T03:45:05.358Z,2.90
2018-04-07T03:46:05.054Z,2.90
2018-04-07T03:47:05.462Z,2.90
2018-04-07T03:48:05.359Z,2.90
2018-04-07T03:49:05.783Z,2.90
2018-04-07T03:50:05.052Z,2.90
2018-04-07T03:51:04.941Z,2.90
2018-04-07T03:52:05.435Z,3.00
2018-04-07T03:53:04.970Z,2.90
2018-04-07T03:54:05.733Z,3.00
2018-04-07T03:55:05.371Z,2.90
2018-04-07T03:56:05.764Z,3.00
2018-04-07T03:57:05.329Z,3.00
2018-04-07T03:58:05.818Z,3.00
2018-04-07T03:59:05.731Z,3.00
2018-04-07T04:00:04.974Z,3.00
2018-04-07T04:01:04.996Z,3.00
2018-04-07T04:02:05.440Z,3.00
2018-04-07T04:03:05.137Z,3.00
2018-04-07T04:04:05.905Z,3.00
2018-04-07T04:05:05.345Z,3.00
2018-04-07T04:06:04.949Z,3.10
2018-04-07T04:07:05.784Z,3.00
2018-04-07T04:08:05.416Z,3.00
2018-04-07T04:09:05.738Z,3.00
2018-04-07T04:10:05.439Z,3.00
2018-04-07T04:11:05.791Z,3.00
2018-04-07T04:12:05.086Z,3.00
2018-04-07T04:13:05.467Z,3.00
2018-04-07T04:14:05.188Z,3.00
2018-04-07T04:15:05.014Z,3.00
2018-04-07T04:16:05.430Z,2.90
2018-04-07T04:17:05.844Z,2.90
2018-04-07T04:18:06.143Z,2.90
2018-04-07T04:19:05.437Z,2.90
2018-04-07T04:20:05.384Z,2.90
2018-04-07T04:21:05.731Z,2.90
2018-04-07T04:22:05.086Z,2.90
2018-04-07T04:23:05.074Z,2.90
2018-04-07T04:24:05.753Z,2.90
2018-04-07T04:25:05.099Z,2.80
2018-04-07T04:26:05.398Z,2.80
2018-04-07T04:27:06.551Z,2.80
2018-04-07T04:28:05.118Z,2.80
2018-04-07T04:29:05.095Z,2.80
2018-04-07T04:30:10.521Z,2.80
2018-04-07T04:31:05.050Z,2.80
2018-04-07T04:32:05.146Z,2.70
2018-04-07T04:33:05.406Z,2.70
2018-04-07T04:34:05.056Z,2.70
2018-04-07T04:35:04.990Z,2.70
2018-04-07T04:36:05.098Z,2.70
2018-04-07T04:37:05.751Z,2.70
2018-04-07T04:38:06.593Z,2.70
2018-04-07T04:39:05.760Z,2.70
2018-04-07T04:40:05.389Z,2.70
2018-04-07T04:41:05.450Z,2.80
2018-04-07T04:42:05.768Z,2.80
2018-04-07T04:43:05.505Z,2.80
2018-04-07T04:44:06.913Z,2.80
2018-04-07T04:45:05.020Z,2.80
2018-04-07T04:46:05.754Z,2.80
2018-04-07T04:47:05.117Z,2.80
2018-04-07T04:48:05.380Z,2.80
2018-04-07T04:49:05.783Z,2.90
2018-04-07T04:50:05.460Z,2.90
2018-04-07T04:51:05.383Z,2.90
2018-04-07T04:52:05.418Z,2.90
2018-04-07T04:53:05.475Z,3.00
2018-04-07T04:54:05.093Z,3.00
2018-04-07T04:55:06.173Z,3.00
2018-04-07T04:56:05.000Z,3.00
2018-04-07T04:57:05.507Z,3.00
2018-04-07T04:58:05.062Z,3.10
2018-04-07T04:59:05.424Z,3.10
2018-04-07T05:00:05.042Z,3.10
2018-04-07T05:01:05.779Z,3.10
2018-04-07T05:02:06.953Z,3.10
2018-04-07T05:03:05.039Z,3.10
2018-04-07T05:04:05.401Z,3.10
2018-04-07T05:05:05.562Z,3.10
2018-04-07T05:06:05.442Z,3.20
2018-04-07T05:07:05.421Z,3.20
2018-04-07T05:08:05.495Z,3.20
2018-04-07T05:09:08.630Z,3.30
2018-04-07T05:10:05.844Z,3.30
2018-04-07T05:11:05.020Z,3.40
2018-04-07T05:12:05.451Z,3.50
2018-04-07T05:13:05.430Z,3.60
2018-04-07T05:14:05.392Z,3.70
2018-04-07T05:15:05.126Z,3.80
2018-04-07T05:16:05.652Z,3.90
2018-04-07T05:17:05.463Z,4.00
2018-04-07T05:18:06.219Z,4.10
2018-04-07T05:19:05.193Z,4.20
2018-04-07T05:20:05.092Z,4.30
2018-04-07T05:21:05.782Z,4.50
2018-04-07T05:22:05.446Z,4.60
2018-04-07T05:23:05.397Z,4.80
2018-04-07T05:24:05.839Z,4.90
2018-04-07T05:25:05.803Z,5.00
2018-04-07T05:26:05.811Z,5.10
2018-04-07T05:27:05.062Z,5.20
2018-04-07T05:28:05.840Z,5.30
2018-04-07T05:29:06.614Z,5.40
2018-04-07T05:30:06.671Z,5.60
2018-04-07T05:31:05.046Z,5.70
2018-04-07T05:32:05.516Z,5.90
2018-04-07T05:33:06.153Z,6.10
2018-04-07T05:34:04.818Z,6.30
2018-04-07T05:35:05.579Z,6.60
2018-04-07T05:36:05.908Z,6.80
2018-04-07T05:37:05.044Z,7.00
2018-04-07T05:38:05.534Z,7.20
2018-04-07T05:39:05.135Z,7.40
2018-04-07T05:40:05.155Z,7.50
2018-04-07T05:41:05.847Z,7.60
2018-04-07T05:42:05.834Z,7.70
2018-04-07T05:43:05.468Z,7.80
2018-04-07T05:44:06.177Z,7.90
2018-04-07T05:45:05.867Z,8.00
2018-04-07T05:46:05.168Z,8.00
2018-04-07T05:47:05.848Z,8.10
2018-04-07T05:48:05.441Z,8.10
2018-04-07T05:49:06.227Z,8.20
2018-04-07T05:50:05.948Z,8.30
2018-04-07T05:51:05.570Z,8.50
2018-04-07T05:52:05.863Z,8.60
2018-04-07T05:53:05.471Z,8.80
2018-04-07T05:54:05.525Z,8.90
2018-04-07T05:55:05.110Z,9.10
2018-04-07T05:56:05.458Z,9.30
2018-04-07T05:57:05.812Z,9.50
2018-04-07T05:58:05.660Z,9.70
2018-04-07T05:59:05.895Z,9.80
2018-04-07T06:00:06.643Z,10.00
2018-04-07T06:01:05.113Z,10.10
2018-04-07T06:02:05.461Z,10.30
2018-04-07T06:03:05.442Z,10.40
2018-04-07T06:04:05.147Z,10.60
2018-04-07T06:05:05.138Z,10.70
2018-04-07T06:06:05.902Z,10.90
2018-04-07T06:07:05.433Z,11.00
2018-04-07T06:08:09.977Z,11.10
2018-04-07T06:09:05.083Z,11.20
2018-04-07T06:10:05.139Z,11.30
2018-04-07T06:11:05.238Z,11.40
2018-04-07T06:12:06.645Z,11.50
2018-04-07T06:13:05.242Z,11.60
2018-04-07T06:14:05.436Z,11.60
2018-04-07T06:15:05.846Z,11.70
2018-04-07T06:16:05.452Z,11.70
2018-04-07T06:17:05.886Z,11.70
2018-04-07T06:18:05.576Z,11.80
2018-04-07T06:19:05.857Z,11.80
2018-04-07T06:20:05.477Z,11.80
2018-04-07T06:21:05.704Z,11.80
2018-04-07T06:22:05.539Z,11.80
2018-04-07T06:23:05.169Z,11.90
2018-04-07T06:24:05.855Z,11.90
2018-04-07T06:25:05.097Z,11.90
2018-04-07T06:26:05.168Z,12.00
2018-04-07T06:27:04.835Z,12.10
2018-04-07T06:28:05.875Z,12.10
2018-04-07T06:29:05.455Z,12.20
2018-04-07T06:30:05.879Z,12.20
2018-04-07T06:31:05.045Z,12.20
2018-04-07T06:32:06.644Z,12.20
2018-04-07T06:33:05.865Z,12.20
2018-04-07T06:34:05.857Z,12.20
2018-04-07T06:35:05.528Z,12.20
2018-04-07T06:36:04.793Z,12.20
2018-04-07T06:37:05.941Z,12.20
2018-04-07T06:38:05.181Z,12.30
2018-04-07T06:39:05.233Z,12.20
2018-04-07T06:40:05.913Z,12.30
2018-04-07T06:41:05.930Z,12.30
2018-04-07T06:42:05.293Z,12.30
2018-04-07T06:43:05.166Z,12.30
2018-04-07T06:44:05.506Z,12.30
2018-04-07T06:45:05.551Z,12.30
2018-04-07T06:46:05.158Z,12.30
2018-04-07T06:47:05.940Z,12.30
2018-04-07T06:48:05.164Z,12.30
2018-04-07T06:49:05.498Z,12.40
2018-04-07T06:50:05.900Z,12.40
2018-04-07T06:51:05.515Z,12.40
2018-04-07T06:52:05.175Z,12.40
2018-04-07T06:53:05.489Z,12.40
2018-04-07T06:54:06.974Z,12.40
2018-04-07T06:55:04.873Z,12.50
2018-04-07T06:56:05.501Z,12.50
2018-04-07T06:57:05.968Z,12.50
2018-04-07T06:58:05.096Z,12.50
2018-04-07T06:59:05.894Z,12.60
2018-04-07T07:00:05.572Z,12.60
2018-04-07T07:01:05.204Z,12.70
2018-04-07T07:02:06.249Z,12.70
2018-04-07T07:03:05.901Z,12.80
2018-04-07T07:04:05.697Z,12.80
2018-04-07T07:05:05.127Z,12.90
2018-04-07T07:06:05.506Z,13.00
2018-04-07T07:07:05.583Z,13.10
2018-04-07T07:08:05.505Z,13.10
2018-04-07T07:09:05.531Z,13.20
2018-04-07T07:10:05.561Z,13.20
2018-04-07T07:11:05.630Z,13.20
2018-04-07T07:12:05.697Z,13.30
2018-04-07T07:13:05.547Z,13.20
2018-04-07T07:14:05.215Z,13.30
2018-04-07T07:15:05.549Z,13.30
2018-04-07T07:16:05.507Z,13.30
2018-04-07T07:17:05.158Z,13.20
2018-04-07T07:18:06.849Z,13.20
2018-04-07T07:19:05.160Z,13.20
2018-04-07T07:20:05.243Z,13.20
2018-04-07T07:21:05.992Z,13.20
2018-04-07T07:22:05.231Z,13.20
2018-04-07T07:23:06.107Z,13.20
2018-04-07T07:24:05.569Z,13.20
2018-04-07T07:25:05.978Z,13.20
2018-04-07T07:26:05.617Z,13.20
2018-04-07T07:27:04.846Z,13.20
2018-04-07T07:28:05.156Z,13.20
2018-04-07T07:29:05.569Z,13.20
2018-04-07T07:30:05.975Z,13.20
2018-04-07T07:31:05.527Z,13.30
2018-04-07T07:32:05.630Z,13.30
2018-04-07T07:33:04.844Z,13.40
2018-04-07T07:34:05.944Z,13.40
2018-04-07T07:35:06.839Z,13.40
2018-04-07T07:36:05.551Z,13.40
2018-04-07T07:37:05.972Z,13.40
2018-04-07T07:38:05.546Z,13.40
2018-04-07T07:39:05.319Z,13.40
2018-04-07T07:40:05.177Z,13.50
2018-04-07T07:41:05.937Z,13.50
2018-04-07T07:42:05.678Z,13.50
2018-04-07T07:43:05.954Z,13.60
2018-04-07T07:44:05.257Z,13.60
2018-04-07T07:45:05.318Z,13.70
2018-04-07T07:46:05.146Z,13.70
2018-04-07T07:47:05.631Z,13.80
2018-04-07T07:48:05.205Z,13.80
2018-04-07T07:49:05.174Z,13.90
2018-04-07T07:50:05.534Z,13.90
2018-04-07T07:51:05.726Z,14.00
2018-04-07T07:52:05.947Z,14.00
2018-04-07T07:53:06.979Z,14.10
2018-04-07T07:54:05.154Z,14.10
2018-04-07T07:55:05.654Z,14.10
2018-04-07T07:56:05.545Z,14.10
2018-04-07T07:57:05.164Z,14.20
2018-04-07T07:58:05.933Z,14.20
2018-04-07T07:59:05.288Z,14.20
2018-04-07T08:00:05.637Z,14.20
2018-04-07T08:01:04.841Z,14.20
2018-04-07T08:02:05.280Z,14.20
2018-04-07T08:03:05.184Z,14.30
2018-04-07T08:04:05.223Z,14.30
2018-04-07T08:05:05.647Z,14.30
2018-04-07T08:06:05.294Z,14.30
2018-04-07T08:07:06.004Z,14.40
2018-04-07T08:08:05.233Z,14.40
2018-04-07T08:09:05.362Z,14.40
2018-04-07T08:10:09.936Z,14.40
2018-04-07T08:11:05.191Z,14.50
2018-04-07T08:12:05.184Z,14.50
2018-04-07T08:13:05.605Z,14.50
2018-04-07T08:14:04.898Z,14.60
2018-04-07T08:15:05.543Z,14.60
2018-04-07T08:16:05.216Z,14.60
2018-04-07T08:17:05.584Z,14.70
2018-04-07T08:18:05.362Z,14.70
2018-04-07T08:19:04.913Z,14.70
2018-04-07T08:20:05.564Z,14.80
2018-04-07T08:21:05.747Z,14.80
2018-04-07T08:22:05.602Z,14.80
2018-04-07T08:23:05.278Z,14.80
2018-04-07T08:24:05.558Z,14.90
2018-04-07T08:25:05.952Z,14.90
2018-04-07T08:26:05.671Z,14.90
2018-04-07T08:27:06.002Z,15.00
2018-04-07T08:28:05.623Z,15.00
2018-04-07T08:29:05.285Z,15.10
2018-04-07T08:30:05.211Z,15.20
2018-04-07T08:31:05.613Z,15.20
2018-04-07T08:32:05.763Z,15.20
2018-04-07T08:33:05.246Z,15.20
2018-04-07T08:34:05.605Z,15.20
2018-04-07T08:35:04.906Z,15.30
2018-04-07T08:36:05.759Z,15.30
2018-04-07T08:37:05.583Z,15.30
2018-04-07T08:38:04.862Z,15.30
2018-04-07T08:39:05.194Z,15.30
2018-04-07T08:40:04.940Z,15.40
2018-04-07T08:41:05.630Z,15.40
2018-04-07T08:42:05.390Z,15.40
2018-04-07T08:43:04.900Z,15.40
2018-04-07T08:44:05.277Z,15.40
2018-04-07T08:45:05.316Z,15.50
2018-04-07T08:46:06.068Z,15.50
2018-04-07T08:47:05.582Z,15.60
2018-04-07T08:48:04.856Z,15.60
2018-04-07T08:49:05.331Z,15.70
2018-04-07T08:50:04.850Z,15.70
2018-04-07T08:51:05.362Z,15.80
2018-04-07T08:52:05.274Z,15.80
2018-04-07T08:53:05.621Z,15.90
2018-04-07T08:54:05.603Z,15.90
2018-04-07T08:55:05.215Z,16.00
2018-04-07T08:56:05.621Z,16.00
2018-04-07T08:57:05.232Z,16.10
2018-04-07T08:58:05.211Z,16.10
2018-04-07T08:59:05.212Z,16.20
2018-04-07T09:00:10.262Z,16.20
2018-04-07T09:01:05.591Z,16.30
2018-04-07T09:02:05.231Z,16.30
2018-04-07T09:03:06.019Z,16.30
2018-04-07T09:04:05.603Z,16.30
2018-04-07T09:05:05.057Z,16.40
2018-04-07T09:06:05.209Z,16.40
2018-04-07T09:07:04.965Z,16.40
2018-04-07T09:08:05.326Z,16.40
2018-04-07T09:09:04.948Z,16.40
2018-04-07T09:10:06.014Z,16.40
2018-04-07T09:11:04.886Z,16.40
2018-04-07T09:12:05.235Z,16.50
2018-04-07T09:13:05.728Z,16.50
2018-04-07T09:14:05.468Z,16.50
2018-04-07T09:15:05.275Z,16.60
2018-04-07T09:16:05.689Z,16.60
2018-04-07T09:17:05.653Z,16.60
2018-04-07T09:18:05.339Z,16.70
2018-04-07T09:19:05.662Z,16.70
2018-04-07T09:20:05.273Z,16.70
2018-04-07T09:21:05.308Z,16.80
2018-04-07T09:22:05.298Z,16.80
2018-04-07T09:23:05.622Z,16.80
2018-04-07T09:24:04.904Z,16.90
2018-04-07T09:25:05.656Z,16.90
2018-04-07T09:26:04.882Z,17.00
2018-04-07T09:27:05.622Z,17.00
2018-04-07T09:28:05.028Z,17.00
2018-04-07T09:29:06.060Z,17.10
2018-04-07T09:30:05.741Z,17.10
2018-04-07T09:31:06.056Z,17.10
2018-04-07T09:32:05.674Z,17.20
2018-04-07T09:33:04.978Z,17.20
2018-04-07T09:34:05.342Z,17.30
2018-04-07T09:35:05.264Z,17.30
2018-04-07T09:36:05.717Z,17.30
2018-04-07T09:37:05.251Z,17.40
2018-04-07T09:38:05.309Z,17.40
2018-04-07T09:39:05.273Z,17.40
2018-04-07T09:40:05.726Z,17.50
2018-04-07T09:41:05.644Z,17.50
2018-04-07T09:42:05.292Z,17.40
2018-04-07T09:43:05.067Z,17.40
2018-04-07T09:44:05.647Z,17.40
2018-04-07T09:45:04.966Z,17.50
2018-04-07T09:46:04.966Z,17.50
2018-04-07T09:47:05.344Z,17.50
2018-04-07T09:48:05.741Z,17.50
2018-04-07T09:49:05.256Z,17.50
2018-04-07T09:50:05.844Z,17.50
2018-04-07T09:51:05.839Z,17.60
2018-04-07T09:52:05.723Z,17.60
2018-04-07T09:53:05.284Z,17.60
2018-04-07T09:54:06.534Z,17.60
2018-04-07T09:55:05.329Z,17.60
2018-04-07T09:56:04.948Z,17.70
2018-04-07T09:57:05.263Z,17.70
2018-04-07T09:58:05.294Z,17.80
2018-04-07T09:59:05.692Z,17.80
2018-04-07T10:00:05.415Z,17.90
2018-04-07T10:01:05.291Z,17.90
2018-04-07T10:02:04.953Z,17.90
2018-04-07T10:03:06.032Z,18.00
2018-04-07T10:04:05.463Z,18.00
2018-04-07T10:05:05.067Z,18.00
2018-04-07T10:06:05.679Z,18.00
2018-04-07T10:07:06.063Z,18.00
2018-04-07T10:08:05.664Z,18.10
2018-04-07T10:09:05.041Z,18.10
2018-04-07T10:10:05.741Z,18.10
2018-04-07T10:11:05.349Z,18.10
2018-04-07T10:12:04.934Z,18.10
2018-04-07T10:13:06.130Z,18.10
2018-04-07T10:14:05.731Z,18.20
2018-04-07T10:15:05.302Z,18.20
2018-04-07T10:16:05.730Z,18.20
2018-04-07T10:17:05.287Z,18.30
2018-04-07T10:18:05.262Z,18.30
2018-04-07T10:19:05.672Z,18.30
2018-04-07T10:20:05.312Z,18.40
2018-04-07T10:21:05.708Z,18.40
2018-04-07T10:22:06.129Z,18.40
2018-04-07T10:23:05.013Z,18.40
2018-04-07T10:24:05.796Z,18.50
2018-04-07T10:25:05.482Z,18.50
2018-04-07T10:26:05.672Z,18.50
2018-04-07T10:27:05.283Z,18.60
2018-04-07T10:28:05.762Z,18.60
2018-04-07T10:29:05.683Z,18.70
2018-04-07T10:30:05.088Z,18.70
2018-04-07T10:31:05.723Z,18.70
2018-04-07T10:32:05.028Z,18.80
2018-04-07T10:33:05.458Z,18.80
2018-04-07T10:34:06.252Z,18.80
2018-04-07T10:35:05.460Z,18.90
2018-04-07T10:36:04.985Z,18.90
2018-04-07T10:37:05.503Z,18.90
2018-04-07T10:38:05.045Z,18.90
2018-04-07T10:39:05.398Z,19.00
2018-04-07T10:40:05.728Z,19.00
2018-04-07T10:41:05.316Z,19.10
2018-04-07T10:42:05.030Z,19.10
2018-04-07T10:43:04.934Z,19.20
2018-04-07T10:44:05.773Z,19.20
2018-04-07T10:45:05.421Z,19.30
2018-04-07T10:46:05.274Z,19.30
2018-04-07T10:47:05.035Z,19.30
2018-04-07T10:48:05.742Z,19.30
2018-04-07T10:49:05.713Z,19.40
2018-04-07T10:50:05.774Z,19.40
2018-04-07T10:51:05.437Z,19.40
2018-04-07T10:52:05.036Z,19.40
2018-04-07T10:53:05.364Z,19.40
2018-04-07T10:54:05.014Z,19.40
2018-04-07T10:55:05.705Z,19.50
2018-04-07T10:56:05.049Z,19.50
2018-04-07T10:57:05.771Z,19.50
2018-04-07T10:58:05.704Z,19.50
2018-04-07T10:59:05.080Z,19.50
2018-04-07T11:00:05.348Z,19.50
2018-04-07T11:01:04.923Z,19.60
2018-04-07T11:02:05.442Z,19.60
2018-04-07T11:03:05.068Z,19.60
2018-04-07T11:04:05.045Z,19.70
2018-04-07T11:05:05.431Z,19.70
2018-04-07T11:06:05.441Z,19.70
2018-04-07T11:07:05.390Z,19.70
2018-04-07T11:08:05.000Z,19.80
2018-04-07T11:09:05.070Z,19.80
2018-04-07T11:10:05.819Z,19.80
2018-04-07T11:11:05.020Z,19.90
2018-04-07T11:12:05.419Z,19.90
2018-04-07T11:13:04.964Z,19.90
2018-04-07T11:14:05.356Z,19.90
2018-04-07T11:15:05.396Z,20.00
2018-04-07T11:16:05.338Z,20.00
2018-04-07T11:17:05.788Z,20.00
2018-04-07T11:18:05.331Z,20.00
2018-04-07T11:19:05.364Z,20.00
2018-04-07T11:20:05.050Z,20.00
2018-04-07T11:21:05.346Z,20.10
2018-04-07T11:22:06.085Z,20.10
2018-04-07T11:23:05.096Z,20.10
2018-04-07T11:24:05.750Z,20.20
2018-04-07T11:25:04.958Z,20.20
2018-04-07T11:26:06.165Z,20.20
2018-04-07T11:27:05.081Z,20.30
2018-04-07T11:28:05.404Z,20.30
2018-04-07T11:29:05.059Z,20.30
2018-04-07T11:30:05.786Z,20.30
2018-04-07T11:31:05.557Z,20.40
2018-04-07T11:32:05.879Z,20.40
2018-04-07T11:33:05.438Z,20.40
2018-04-07T11:34:10.574Z,20.40
2018-04-07T11:35:05.764Z,20.50
2018-04-07T11:36:05.465Z,20.50
2018-04-07T11:37:07.039Z,20.50
2018-04-07T11:38:05.755Z,20.50
2018-04-07T11:39:05.346Z,20.50
2018-04-07T11:40:05.034Z,20.50
2018-04-07T11:41:05.777Z,20.60
2018-04-07T11:42:05.396Z,20.60
2018-04-07T11:43:05.745Z,20.60
2018-04-07T11:44:05.266Z,20.60
2018-04-07T11:45:05.508Z,20.60
2018-04-07T11:46:05.071Z,20.60
2018-04-07T11:47:05.757Z,20.70
2018-04-07T11:48:05.439Z,20.70
2018-04-07T11:49:05.083Z,20.70
2018-04-07T11:50:05.430Z,20.70
2018-04-07T11:51:05.830Z,20.70
2018-04-07T11:52:05.387Z,20.70
2018-04-07T11:53:05.597Z,20.80
2018-04-07T11:54:05.100Z,20.80
2018-04-07T11:55:04.785Z,20.80
2018-04-07T11:56:05.477Z,20.80
2018-04-07T11:57:05.056Z,20.80
2018-04-07T11:58:05.849Z,20.80
2018-04-07T11:59:05.110Z,20.80
2018-04-07T12:00:05.375Z,20.90
2018-04-07T12:01:05.771Z,20.90
2018-04-07T12:02:05.425Z,20.90
2018-04-07T12:03:05.125Z,20.90
2018-04-07T12:04:05.380Z,20.90
2018-04-07T12:05:05.444Z,21.00
2018-04-07T12:06:05.594Z,21.00
2018-04-07T12:07:05.129Z,21.00
2018-04-07T12:08:05.428Z,21.00
2018-04-07T12:09:05.841Z,21.00
2018-04-07T12:10:05.055Z,21.10
2018-04-07T12:11:05.229Z,21.10
2018-04-07T12:12:05.894Z,21.10
2018-04-07T12:13:05.114Z,21.20
2018-04-07T12:14:05.776Z,21.20
2018-04-07T12:15:05.026Z,21.20
2018-04-07T12:16:05.786Z,21.20
2018-04-07T12:17:05.493Z,21.30
2018-04-07T12:18:05.815Z,21.30
2018-04-07T12:19:05.276Z,21.30
2018-04-07T12:20:05.185Z,21.30
2018-04-07T12:21:05.181Z,21.30
2018-04-07T12:22:05.058Z,21.40
2018-04-07T12:23:05.796Z,21.40
2018-04-07T12:24:05.177Z,21.50
2018-04-07T12:25:05.945Z,21.50
2018-04-07T12:26:05.416Z,21.50
2018-04-07T12:27:05.465Z,21.50
2018-04-07T12:28:05.083Z,21.60
2018-04-07T12:29:05.582Z,21.60
2018-04-07T12:30:05.617Z,21.50
2018-04-07T12:31:05.076Z,21.60
2018-04-07T12:32:05.104Z,21.60
2018-04-07T12:33:05.911Z,21.60
2018-04-07T12:34:05.509Z,21.60
2018-04-07T12:35:05.514Z,21.70
2018-04-07T12:36:05.079Z,21.70
2018-04-07T12:37:05.799Z,21.70
2018-04-07T12:38:05.047Z,21.70
2018-04-07T12:39:05.424Z,21.80
2018-04-07T12:40:05.108Z,21.80
2018-04-07T12:41:05.594Z,21.80
2018-04-07T12:42:05.495Z,21.80
2018-04-07T12:43:05.096Z,21.90
2018-04-07T12:44:05.814Z,21.90
2018-04-07T12:45:05.814Z,21.90
2018-04-07T12:46:05.173Z,21.90
2018-04-07T12:47:04.901Z,21.90
2018-04-07T12:48:05.813Z,21.90
2018-04-07T12:49:05.891Z,21.90
2018-04-07T12:50:05.534Z,21.90
2018-04-07T12:51:05.916Z,21.90
2018-04-07T12:52:05.538Z,21.90
2018-04-07T12:53:05.208Z,21.90
2018-04-07T12:54:05.519Z,21.90
2018-04-07T12:55:05.944Z,21.90
2018-04-07T12:56:05.085Z,21.90
2018-04-07T12:57:05.842Z,21.90
2018-04-07T12:58:05.540Z,21.90
2018-04-07T12:59:05.442Z,21.90
2018-04-07T13:00:05.831Z,21.90
2018-04-07T13:01:05.071Z,22.00
2018-04-07T13:02:05.515Z,21.90
2018-04-07T13:03:05.100Z,21.90
2018-04-07T13:04:05.561Z,21.90